Time;durP1;ratioP1;P1;durP2;ratioP2;P2;SDS_P1;SDS_P2;PMS_P1;PMS_P2;Temp;Humidity;BMP_temperature;BMP_pressure;BME280_temperature;BME280_humidity;BME280_pressure;Samples;Min_cycle;Max_cycle;Signal;HPM_P1;HPM_P2
2023/10/09 00:01:01;;;;;;;;;;;13.40;99.90;;;;;;5060260;28;19978;-67
2023/10/09 00:03:27;;;;;;;;;;;13.50;99.90;;;;;;5062349;28;19924;-67
2023/10/09 00:05:53;;;;;;;;;;;13.50;99.90;;;;;;5073443;28;19936;-67
2023/10/09 00:08:21;;;;;;;;;;;13.50;99.90;;;;;;5042327;28;22442;-67
2023/10/09 00:10:53;;;;;;;;;;;13.50;99.90;;;;;;5073186;28;19916;-67
2023/10/09 00:13:30;;;;;;;;;;;13.50;99.90;;;;;;5042228;28;19935;-67
2023/10/09 00:16:08;;;;;;;;;;;13.50;99.90;;;;;;5058460;28;19922;-67
2023/10/09 00:18:34;;;;;;;;;;;13.40;99.90;;;;;;5048671;28;19917;-67
2023/10/09 00:21:10;;;;;;;;;;;13.50;99.90;;;;;;5054377;28;19927;-67
2023/10/09 00:23:36;;;;;;;;;;;13.40;99.90;;;;;;5071302;28;19920;-67
2023/10/09 00:26:08;;;;;;;;;;;13.40;99.90;;;;;;5058377;28;19939;-67
2023/10/09 00:28:34;;;;;;;;;;;13.40;99.90;;;;;;5061078;28;20014;-67
2023/10/09 00:31:06;;;;;;;;;;;13.40;99.90;;;;;;5063869;28;19920;-67
2023/10/09 00:33:32;;;;;;;;;;;13.40;99.90;;;;;;5061564;28;20308;-67
2023/10/09 00:36:08;;;;;;;;;;;13.40;99.90;;;;;;5060739;28;19940;-67
2023/10/09 00:38:34;;;;;;;;;;;13.40;99.90;;;;;;5075658;28;19920;-67
2023/10/09 00:43:36;;;;;;;;;;;13.40;99.90;;;;;;5058435;28;19926;-67
2023/10/09 00:46:03;;;;;;;;;;;13.50;99.90;;;;;;5060765;28;19998;-67
2023/10/09 00:48:37;;;;;;;;;;;13.40;99.90;;;;;;5074265;28;20384;-67
2023/10/09 00:51:08;;;;;;;;;;;13.50;99.90;;;;;;5070388;28;19958;-67
2023/10/09 00:53:33;;;;;;;;;;;13.40;99.90;;;;;;5075526;28;19923;-67
2023/10/09 00:56:18;;;;;;;;;;;13.50;99.90;;;;;;5062776;28;20332;-67
2023/10/09 00:58:46;;;;;;;;;;;13.50;99.90;;;;;;5056818;28;19939;-67
2023/10/09 01:01:16;;;;;;;;;;;13.50;99.90;;;;;;5060682;28;19966;-67
2023/10/09 01:03:42;;;;;;;;;;;13.50;99.90;;;;;;5054891;28;19981;-67
2023/10/09 01:11:18;;;;;;;;;;;13.50;99.90;;;;;;5067174;28;20001;-67
2023/10/09 01:16:17;;;;;;;;;;;13.50;99.90;;;;;;5060844;28;20011;-67
2023/10/09 01:18:49;;;;;;;;;;;13.40;99.90;;;;;;5061151;28;19925;-67
2023/10/09 01:21:15;;;;;;;;;;;13.40;99.90;;;;;;5074200;28;20377;-67
2023/10/09 01:23:58;;;;;;;;;;;13.40;99.90;;;;;;5072554;28;19955;-67
2023/10/09 01:26:24;;;;;;;;;;;13.40;99.90;;;;;;5063549;28;19924;-67
2023/10/09 01:28:50;;;;;;;;;;;13.40;99.90;;;;;;5062365;28;19924;-67
2023/10/09 01:31:15;;;;;;;;;;;13.40;99.90;;;;;;5063636;28;19973;-67
2023/10/09 01:33:41;;;;;;;;;;;13.40;99.90;;;;;;5050130;28;20313;-67
2023/10/09 01:36:09;;;;;;;;;;;13.40;99.90;;;;;;5076155;28;19924;-67
2023/10/09 01:38:44;;;;;;;;;;;13.40;99.90;;;;;;5054873;28;19916;-67
2023/10/09 01:41:16;;;;;;;;;;;13.40;99.90;;;;;;5072053;28;20102;-67
2023/10/09 01:43:44;;;;;;;;;;;13.40;99.90;;;;;;5057721;28;19920;-67
2023/10/09 01:46:16;;;;;;;;;;;13.40;99.90;;;;;;5073774;28;20017;-67
2023/10/09 01:48:46;;;;;;;;;;;13.40;99.90;;;;;;5072413;28;19924;-68
2023/10/09 01:51:17;;;;;;;;;;;13.40;99.90;;;;;;5053749;28;19916;-67
2023/10/09 01:53:44;;;;;;;;;;;13.40;99.90;;;;;;5051419;28;20317;-67
2023/10/09 01:56:14;;;;;;;;;;;13.40;99.90;;;;;;5071572;28;19928;-67
2023/10/09 01:58:40;;;;;;;;;;;13.40;99.90;;;;;;5057994;28;20005;-67
2023/10/09 02:01:06;;;;;;;;;;;13.40;99.90;;;;;;5045738;28;19970;-67
2023/10/09 02:03:36;;;;;;;;;;;13.40;99.90;;;;;;5063496;28;20317;-67
2023/10/09 02:08:50;;;;;;;;;;;13.40;99.90;;;;;;5069034;28;19997;-67
2023/10/09 02:11:24;;;;;;;;;;;13.30;99.90;;;;;;5055756;28;20245;-67
2023/10/09 02:14:00;;;;;;;;;;;13.30;99.90;;;;;;5059005;28;19924;-67
2023/10/09 02:16:29;;;;;;;;;;;13.30;99.90;;;;;;5059911;28;19923;-67
2023/10/09 02:21:33;;;;;;;;;;;13.30;99.90;;;;;;5056506;28;19919;-67
2023/10/09 02:24:04;;;;;;;;;;;13.30;99.90;;;;;;5060309;28;19924;-67
2023/10/09 02:29:14;;;;;;;;;;;13.30;99.90;;;;;;5060426;28;20002;-67
2023/10/09 02:31:40;;;;;;;;;;;13.30;99.90;;;;;;5054182;28;19917;-67
2023/10/09 02:34:10;;;;;;;;;;;13.30;99.90;;;;;;5059768;28;19973;-68
2023/10/09 02:36:41;;;;;;;;;;;13.30;99.90;;;;;;5075668;28;19924;-67
2023/10/09 02:39:21;;;;;;;;;;;13.30;99.90;;;;;;5043611;28;19923;-67
2023/10/09 02:41:50;;;;;;;;;;;13.40;99.90;;;;;;5058022;28;20030;-67
2023/10/09 02:44:15;;;;;;;;;;;13.40;99.90;;;;;;5056851;28;19916;-67
2023/10/09 02:46:41;;;;;;;;;;;13.40;99.90;;;;;;5058771;28;19928;-67
2023/10/09 02:49:09;;;;;;;;;;;13.40;99.90;;;;;;5075777;28;20399;-67
2023/10/09 02:51:41;;;;;;;;;;;13.40;99.90;;;;;;5067467;28;19916;-67
2023/10/09 02:54:34;;;;;;;;;;;13.40;99.90;;;;;;5054933;28;19927;-67
2023/10/09 02:57:07;;;;;;;;;;;13.40;99.90;;;;;;5055341;28;20061;-67
2023/10/09 02:59:33;;;;;;;;;;;13.40;99.90;;;;;;5067737;28;19932;-67
2023/10/09 03:02:02;;;;;;;;;;;13.40;99.90;;;;;;5056871;28;19927;-67
2023/10/09 03:04:29;;;;;;;;;;;13.40;99.90;;;;;;5073682;28;19931;-67
2023/10/09 03:06:57;;;;;;;;;;;13.40;99.90;;;;;;5056871;28;19920;-67
2023/10/09 03:09:26;;;;;;;;;;;13.40;99.90;;;;;;5069045;28;19936;-67
2023/10/09 03:11:53;;;;;;;;;;;13.40;99.90;;;;;;5058585;28;19921;-67
2023/10/09 03:14:20;;;;;;;;;;;13.40;99.90;;;;;;5056935;28;19917;-67
2023/10/09 03:16:48;;;;;;;;;;;13.40;99.90;;;;;;5064032;28;19962;-67
2023/10/09 03:19:13;;;;;;;;;;;13.50;99.90;;;;;;5062402;28;19920;-67
2023/10/09 03:21:39;;;;;;;;;;;13.40;99.90;;;;;;5057695;28;19921;-67
2023/10/09 03:24:06;;;;;;;;;;;13.50;99.90;;;;;;5072549;28;20462;-66
2023/10/09 03:26:32;;;;;;;;;;;13.50;99.90;;;;;;5059806;28;20319;-66
2023/10/09 03:29:00;;;;;;;;;;;13.60;99.90;;;;;;5060275;28;19920;-67
2023/10/09 03:31:33;;;;;;;;;;;13.60;99.90;;;;;;5077022;28;19986;-67
2023/10/09 03:33:59;;;;;;;;;;;13.60;99.90;;;;;;5068270;28;19924;-67
2023/10/09 03:36:26;;;;;;;;;;;13.70;99.90;;;;;;5054637;28;20399;-67
2023/10/09 03:38:54;;;;;;;;;;;13.70;99.90;;;;;;5067935;28;20329;-67
2023/10/09 03:41:20;;;;;;;;;;;13.80;99.90;;;;;;5066878;28;19920;-67
2023/10/09 03:43:46;;;;;;;;;;;13.80;99.90;;;;;;5043118;28;19938;-67
2023/10/09 03:46:22;;;;;;;;;;;13.90;99.90;;;;;;5063789;28;19917;-66
2023/10/09 03:48:47;;;;;;;;;;;13.90;99.90;;;;;;5054361;28;19931;-66
2023/10/09 03:51:20;;;;;;;;;;;14.00;99.90;;;;;;5059730;28;19920;-67
2023/10/09 03:53:47;;;;;;;;;;;14.00;99.90;;;;;;5075000;28;19967;-67
2023/10/09 03:56:13;;;;;;;;;;;14.00;99.90;;;;;;5070899;28;20344;-67
2023/10/09 03:58:45;;;;;;;;;;;14.10;99.90;;;;;;5042221;28;20018;-66
2023/10/09 04:01:22;;;;;;;;;;;14.10;99.90;;;;;;5061800;28;19944;-67
2023/10/09 04:03:48;;;;;;;;;;;14.20;99.90;;;;;;5078800;28;19999;-68
2023/10/09 04:06:14;;;;;;;;;;;14.20;99.90;;;;;;5067415;28;19923;-67
2023/10/09 04:08:47;;;;;;;;;;;14.30;99.90;;;;;;5074257;28;19928;-67
2023/10/09 04:11:16;;;;;;;;;;;14.40;99.90;;;;;;5059593;28;20436;-67
2023/10/09 04:13:47;;;;;;;;;;;14.40;99.90;;;;;;5074758;28;19921;-67
2023/10/09 04:16:33;;;;;;;;;;;14.50;99.90;;;;;;5073617;28;20359;-68
2023/10/09 04:18:59;;;;;;;;;;;14.50;99.90;;;;;;5063603;28;20014;-67
2023/10/09 04:21:34;;;;;;;;;;;14.50;99.90;;;;;;5073231;28;19956;-67
2023/10/09 04:24:22;;;;;;;;;;;14.60;99.90;;;;;;5072314;28;19935;-67
2023/10/09 04:26:48;;;;;;;;;;;14.50;99.90;;;;;;5064134;28;19916;-67
2023/10/09 04:29:26;;;;;;;;;;;14.60;99.90;;;;;;5072898;28;19921;-67
2023/10/09 04:31:52;;;;;;;;;;;14.60;99.90;;;;;;5058133;28;20011;-67
2023/10/09 04:34:22;;;;;;;;;;;14.60;99.90;;;;;;5065342;28;19916;-67
2023/10/09 04:36:54;;;;;;;;;;;14.60;99.90;;;;;;5055916;28;19970;-67
2023/10/09 04:47:35;;;;;;;;;;;14.50;99.90;;;;;;5070470;28;19923;-68
2023/10/09 04:52:54;;;;;;;;;;;14.50;99.90;;;;;;5059498;28;19998;-68
2023/10/09 04:55:24;;;;;;;;;;;14.50;99.90;;;;;;5074478;28;19924;-67
2023/10/09 04:58:09;;;;;;;;;;;14.50;99.90;;;;;;5052549;28;19963;-68
2023/10/09 05:03:25;;;;;;;;;;;14.50;99.90;;;;;;5054113;28;19917;-69
2023/10/09 05:05:58;;;;;;;;;;;14.40;99.90;;;;;;5059136;28;20046;-69
2023/10/09 05:16:13;;;;;;;;;;;14.40;99.90;;;;;;5063849;28;20267;-68
2023/10/09 05:18:39;;;;;;;;;;;14.50;99.90;;;;;;5070832;28;20333;-68
2023/10/09 05:24:10;;;;;;;;;;;14.50;99.90;;;;;;5072204;28;19920;-68
2023/10/09 05:26:50;;;;;;;;;;;14.50;99.90;;;;;;5062561;28;19920;-68
2023/10/09 05:32:02;;;;;;;;;;;14.50;99.90;;;;;;5078393;28;20402;-68
2023/10/09 05:34:33;;;;;;;;;;;14.50;99.90;;;;;;5064794;28;19916;-68
2023/10/09 05:37:55;;;;;;;;;;;14.50;99.90;;;;;;5067130;28;19920;-68
2023/10/09 05:40:22;;;;;;;;;;;14.50;99.90;;;;;;5056959;28;19974;-68
2023/10/09 05:42:44;;;;;;;;;;;14.50;99.90;;;;;;5056292;28;19920;-68
2023/10/09 05:51:10;;;;;;;;;;;14.60;99.90;;;;;;5054009;28;20086;-69
2023/10/09 06:04:33;;;;;;;;;;;14.60;99.90;;;;;;5054857;28;19983;-69
2023/10/09 06:07:10;;;;;;;;;;;14.60;99.90;;;;;;5067597;28;19927;-70
2023/10/09 06:09:52;;;;;;;;;;;14.70;99.90;;;;;;5066569;28;19942;-68
2023/10/09 06:12:49;;;;;;;;;;;14.70;99.90;;;;;;5056435;28;19924;-69
2023/10/09 06:16:01;;;;;;;;;;;14.70;99.90;;;;;;5058757;28;20343;-69
2023/10/09 06:18:32;;;;;;;;;;;14.70;99.90;;;;;;5058783;28;20288;-69
2023/10/09 06:21:39;;;;;;;;;;;14.70;99.90;;;;;;5076409;28;20298;-69
2023/10/09 06:24:09;;;;;;;;;;;14.80;99.90;;;;;;5069133;28;19923;-69
2023/10/09 06:26:34;;;;;;;;;;;14.80;99.90;;;;;;5040120;28;19966;-69
2023/10/09 06:29:34;;;;;;;;;;;14.80;99.90;;;;;;5051028;28;20007;-69
2023/10/09 06:31:58;;;;;;;;;;;14.90;99.90;;;;;;5059471;28;20372;-69
2023/10/09 06:34:32;;;;;;;;;;;14.90;99.90;;;;;;5077663;28;19924;-69
2023/10/09 06:37:03;;;;;;;;;;;14.90;99.90;;;;;;5071613;28;19921;-69
2023/10/09 06:47:41;;;;;;;;;;;15.00;99.90;;;;;;5061841;28;19924;-70
2023/10/09 06:53:58;;;;;;;;;;;15.00;99.90;;;;;;5058401;28;19965;-69
2023/10/09 06:56:01;;;;;;;;;;;15.10;99.90;;;;;;5038252;28;20602;-69
2023/10/09 06:58:28;;;;;;;;;;;15.10;99.90;;;;;;5064831;28;20339;-69
2023/10/09 07:03:29;;;;;;;;;;;15.10;99.90;;;;;;5074046;28;19928;-69
2023/10/09 07:09:15;;;;;;;;;;;15.10;99.90;;;;;;5066486;28;20006;-69
2023/10/09 07:14:07;;;;;;;;;;;15.10;99.90;;;;;;5061588;28;20013;-69
2023/10/09 07:16:38;;;;;;;;;;;15.20;99.90;;;;;;5041582;28;19969;-70
2023/10/09 07:19:09;;;;;;;;;;;15.10;99.90;;;;;;5066495;28;19959;-70
2023/10/09 07:21:38;;;;;;;;;;;15.10;99.90;;;;;;5060716;28;19920;-70
2023/10/09 07:24:14;;;;;;;;;;;15.10;99.90;;;;;;5044134;28;19967;-70
2023/10/09 07:26:47;;;;;;;;;;;15.10;99.90;;;;;;5064855;28;20245;-70
2023/10/09 07:29:16;;;;;;;;;;;15.10;99.90;;;;;;5063999;28;20344;-70
2023/10/09 07:31:45;;;;;;;;;;;15.20;99.90;;;;;;5065401;28;20011;-71
2023/10/09 07:36:56;;;;;;;;;;;15.20;99.90;;;;;;5062635;28;19932;-71
2023/10/09 07:39:22;;;;;;;;;;;15.10;99.90;;;;;;5069024;28;20217;-72
2023/10/09 07:42:15;;;;;;;;;;;15.20;99.90;;;;;;5071747;28;19923;-72
2023/10/09 07:44:52;;;;;;;;;;;15.10;99.90;;;;;;5067728;28;19920;-72
2023/10/09 07:47:22;;;;;;;;;;;15.20;99.90;;;;;;5069894;28;19928;-72
2023/10/09 07:49:52;;;;;;;;;;;15.20;99.90;;;;;;5067773;28;19928;-72
2023/10/09 07:52:18;;;;;;;;;;;15.20;99.90;;;;;;5063554;28;19921;-72
2023/10/09 07:54:49;;;;;;;;;;;15.20;99.90;;;;;;5065958;28;20080;-72
2023/10/09 07:57:16;;;;;;;;;;;15.20;99.90;;;;;;5071806;28;20260;-71
2023/10/09 07:59:54;;;;;;;;;;;15.30;99.90;;;;;;5070145;28;19974;-71
2023/10/09 08:02:31;;;;;;;;;;;15.20;99.90;;;;;;5069084;28;19917;-71
2023/10/09 08:05:03;;;;;;;;;;;15.30;99.90;;;;;;5071062;28;20003;-71
2023/10/09 08:07:35;;;;;;;;;;;15.30;99.90;;;;;;5064970;28;20399;-72
2023/10/09 08:18:13;;;;;;;;;;;15.40;99.90;;;;;;5067134;28;20276;-72
2023/10/09 08:21:19;;;;;;;;;;;15.40;99.90;;;;;;5059036;28;20575;-72
2023/10/09 08:23:48;;;;;;;;;;;15.50;99.90;;;;;;5066671;28;20293;-73
2023/10/09 08:26:31;;;;;;;;;;;15.50;99.90;;;;;;5065873;28;19923;-73
2023/10/09 08:29:17;;;;;;;;;;;15.50;99.90;;;;;;5061891;28;19920;-74
2023/10/09 08:31:46;;;;;;;;;;;15.60;99.90;;;;;;5064162;28;20320;-72
2023/10/09 08:34:24;;;;;;;;;;;15.60;99.90;;;;;;5082683;28;19915;-73
2023/10/09 08:36:53;;;;;;;;;;;15.70;99.90;;;;;;5067186;28;20027;-73
2023/10/09 08:39:25;;;;;;;;;;;15.70;99.90;;;;;;5081587;28;19986;-72
2023/10/09 08:41:57;;;;;;;;;;;15.70;99.90;;;;;;5081722;28;19970;-73
2023/10/09 08:44:26;;;;;;;;;;;15.70;99.90;;;;;;5056400;28;19927;-73
2023/10/09 08:46:54;;;;;;;;;;;15.70;99.90;;;;;;5067237;28;19960;-72
2023/10/09 08:49:21;;;;;;;;;;;15.70;99.90;;;;;;5076223;28;19920;-72
2023/10/09 08:51:48;;;;;;;;;;;15.60;99.90;;;;;;5073393;28;19981;-71
2023/10/09 08:54:14;;;;;;;;;;;15.60;99.90;;;;;;5076616;28;20106;-72
2023/10/09 08:56:49;;;;;;;;;;;15.50;99.90;;;;;;5079540;28;19924;-71
2023/10/09 08:59:18;;;;;;;;;;;15.60;99.90;;;;;;5065592;28;19924;-70
2023/10/09 09:01:44;;;;;;;;;;;15.60;99.90;;;;;;5065447;28;19917;-72
2023/10/09 09:04:10;;;;;;;;;;;15.50;99.90;;;;;;5060576;28;20011;-74
2023/10/09 09:06:38;;;;;;;;;;;15.80;99.90;;;;;;5072136;28;20748;-73
2023/10/09 09:09:13;;;;;;;;;;;15.20;99.90;;;;;;5077284;28;20353;-76
2023/10/09 09:11:52;;;;;;;;;;;15.60;99.90;;;;;;5069394;28;19969;-77
2023/10/09 09:14:22;;;;;;;;;;;15.10;99.90;;;;;;5066146;28;20271;-74
2023/10/09 09:16:52;;;;;;;;;;;15.20;99.90;;;;;;5051898;28;19920;-74
2023/10/09 09:19:17;;;;;;;;;;;15.20;99.90;;;;;;5081595;28;19931;-75
2023/10/09 09:21:47;;;;;;;;;;;15.50;99.90;;;;;;5065605;28;19920;-74
2023/10/09 09:26:58;;;;;;;;;;;15.80;99.90;;;;;;5073739;28;19958;-75
2023/10/09 09:29:37;;;;;;;;;;;15.20;99.90;;;;;;5071428;28;20323;-76
2023/10/09 09:32:15;;;;;;;;;;;16.10;99.90;;;;;;5078194;28;20387;-77
2023/10/09 09:34:46;;;;;;;;;;;15.40;99.90;;;;;;5068525;28;20366;-76
2023/10/09 09:37:18;;;;;;;;;;;15.40;99.90;;;;;;5064170;28;19931;-76
2023/10/09 09:39:48;;;;;;;;;;;15.90;99.90;;;;;;5074614;28;19923;-73
2023/10/09 09:42:14;;;;;;;;;;;16.30;99.90;;;;;;5063797;28;19928;-74
2023/10/09 09:44:48;;;;;;;;;;;15.40;99.90;;;;;;5083031;28;20258;-75
2023/10/09 09:47:23;;;;;;;;;;;16.00;99.90;;;;;;5069697;28;19938;-73
2023/10/09 09:49:50;;;;;;;;;;;15.60;99.90;;;;;;5055554;28;19974;-74
2023/10/09 09:52:18;;;;;;;;;;;16.30;99.90;;;;;;5064736;28;19943;-74
2023/10/09 09:54:44;;;;;;;;;;;15.50;99.90;;;;;;5068651;28;20029;-71
2023/10/09 09:57:12;;;;;;;;;;;15.40;99.90;;;;;;5066816;28;20033;-73
2023/10/09 09:59:52;;;;;;;;;;;15.90;99.90;;;;;;5075456;28;19966;-72
2023/10/09 10:02:29;;;;;;;;;;;16.00;99.90;;;;;;5065470;28;19920;-73
2023/10/09 10:04:56;;;;;;;;;;;15.60;99.90;;;;;;5070112;28;19931;-75
2023/10/09 10:07:23;;;;;;;;;;;16.20;99.90;;;;;;5068660;28;19968;-75
2023/10/09 10:09:54;;;;;;;;;;;15.60;99.90;;;;;;5067847;28;20465;-75
2023/10/09 10:12:41;;;;;;;;;;;15.70;99.90;;;;;;5052488;28;19965;-76
2023/10/09 10:15:14;;;;;;;;;;;16.00;99.90;;;;;;5068662;28;20023;-79
2023/10/09 10:18:04;;;;;;;;;;;16.70;99.90;;;;;;5069602;28;20388;-80
2023/10/09 10:20:31;;;;;;;;;;;15.80;99.90;;;;;;5067022;28;19951;-78
2023/10/09 10:23:20;;;;;;;;;;;16.10;99.90;;;;;;5067782;28;19920;-72
2023/10/09 10:25:49;;;;;;;;;;;16.30;99.90;;;;;;5086056;28;19923;-79
2023/10/09 10:28:45;;;;;;;;;;;16.50;99.90;;;;;;5068655;28;19939;-79
2023/10/09 10:31:13;;;;;;;;;;;16.20;99.90;;;;;;5069231;28;19920;-79
2023/10/09 10:33:58;;;;;;;;;;;16.30;99.90;;;;;;5055194;28;20261;-81
2023/10/09 10:36:26;;;;;;;;;;;16.00;99.90;;;;;;5068772;28;20297;-77
2023/10/09 10:39:11;;;;;;;;;;;16.60;99.90;;;;;;5049733;28;20241;-77
2023/10/09 10:41:50;;;;;;;;;;;16.40;99.90;;;;;;5066089;28;19916;-79
2023/10/09 10:44:41;;;;;;;;;;;15.90;99.90;;;;;;5060199;28;19916;-77
2023/10/09 10:47:22;;;;;;;;;;;15.90;99.90;;;;;;5067129;28;19928;-77
2023/10/09 10:49:50;;;;;;;;;;;16.00;99.90;;;;;;5069856;28;19967;-79
2023/10/09 10:52:22;;;;;;;;;;;16.70;99.90;;;;;;5075924;28;20528;-78
2023/10/09 10:55:17;;;;;;;;;;;16.20;99.90;;;;;;5073719;28;19916;-80
2023/10/09 10:57:54;;;;;;;;;;;16.60;99.90;;;;;;5064196;28;19935;-77
2023/10/09 11:03:29;;;;;;;;;;;16.10;99.90;;;;;;5066088;28;19920;-78
2023/10/09 11:05:55;;;;;;;;;;;16.00;99.90;;;;;;5066600;28;20221;-77
2023/10/09 11:08:24;;;;;;;;;;;15.80;99.90;;;;;;5065211;28;19973;-76
2023/10/09 11:10:50;;;;;;;;;;;15.70;99.90;;;;;;5080093;28;19920;-74
2023/10/09 11:13:33;;;;;;;;;;;16.30;99.90;;;;;;5061353;28;19927;-76
2023/10/09 11:16:28;;;;;;;;;;;16.50;99.90;;;;;;5078269;28;19920;-74
2023/10/09 11:18:56;;;;;;;;;;;16.10;99.90;;;;;;5050051;28;19996;-75
2023/10/09 11:21:30;;;;;;;;;;;16.60;99.90;;;;;;5082887;28;19939;-75
2023/10/09 11:24:23;;;;;;;;;;;16.00;99.90;;;;;;5083843;28;19955;-76
2023/10/09 11:26:53;;;;;;;;;;;16.10;99.90;;;;;;5073790;28;19969;-75
2023/10/09 11:32:05;;;;;;;;;;;16.20;99.90;;;;;;5072791;28;19924;-78
2023/10/09 11:34:37;;;;;;;;;;;16.10;99.90;;;;;;5058024;28;19955;-75
2023/10/09 11:37:11;;;;;;;;;;;16.50;99.90;;;;;;5057377;28;20670;-75
2023/10/09 11:39:50;;;;;;;;;;;16.20;99.90;;;;;;5067979;28;20357;-78
2023/10/09 11:42:35;;;;;;;;;;;16.00;99.90;;;;;;5083593;28;19923;-75
2023/10/09 11:45:04;;;;;;;;;;;15.90;99.90;;;;;;5070500;28;19970;-75
2023/10/09 11:47:45;;;;;;;;;;;15.80;99.90;;;;;;5082962;28;19974;-75
2023/10/09 11:50:17;;;;;;;;;;;16.30;99.90;;;;;;5087829;28;20375;-74
2023/10/09 11:55:40;;;;;;;;;;;16.50;99.90;;;;;;5070531;28;19924;-76
2023/10/09 11:58:07;;;;;;;;;;;15.80;99.90;;;;;;5063361;28;19935;-73
2023/10/09 12:00:44;;;;;;;;;;;16.10;99.90;;;;;;5071831;28;19923;-77
2023/10/09 12:03:09;;;;;;;;;;;16.40;99.90;;;;;;5078973;28;19985;-77
2023/10/09 12:05:35;;;;;;;;;;;16.10;99.90;;;;;;5068866;28;20408;-77
2023/10/09 12:08:02;;;;;;;;;;;16.30;99.90;;;;;;5063658;28;20065;-76
2023/10/09 12:10:29;;;;;;;;;;;15.80;99.90;;;;;;5078284;28;19924;-74
2023/10/09 12:12:57;;;;;;;;;;;16.50;99.90;;;;;;5055329;28;20260;-75
2023/10/09 12:15:23;;;;;;;;;;;16.60;99.90;;;;;;5071445;28;19920;-76
2023/10/09 12:17:49;;;;;;;;;;;17.10;99.90;;;;;;5061270;28;19950;-77
2023/10/09 12:20:30;;;;;;;;;;;16.70;99.90;;;;;;5065274;28;20365;-73
2023/10/09 12:22:57;;;;;;;;;;;16.40;99.90;;;;;;5061172;28;19916;-75
2023/10/09 12:25:23;;;;;;;;;;;17.30;99.90;;;;;;5071261;28;19927;-76
2023/10/09 12:27:48;;;;;;;;;;;16.40;99.90;;;;;;5080094;28;19917;-74
2023/10/09 12:30:14;;;;;;;;;;;17.70;99.90;;;;;;5084766;28;20336;-76
2023/10/09 12:32:40;;;;;;;;;;;17.30;99.90;;;;;;5051172;28;19951;-76
2023/10/09 12:35:17;;;;;;;;;;;16.90;99.90;;;;;;5062374;28;20002;-74
2023/10/09 12:37:43;;;;;;;;;;;17.40;99.90;;;;;;5058967;28;20576;-74
2023/10/09 12:40:10;;;;;;;;;;;16.90;99.90;;;;;;5067063;28;20045;-76
2023/10/09 12:42:36;;;;;;;;;;;17.60;99.90;;;;;;5062030;28;19993;-76
2023/10/09 12:45:08;;;;;;;;;;;17.00;99.90;;;;;;5071956;28;19916;-74
2023/10/09 12:47:42;;;;;;;;;;;17.50;99.90;;;;;;5065386;28;19927;-75
2023/10/09 12:50:13;;;;;;;;;;;17.30;99.90;;;;;;5065481;28;19970;-72
2023/10/09 12:52:39;;;;;;;;;;;17.30;99.90;;;;;;5058442;28;19985;-74
2023/10/09 12:55:09;;;;;;;;;;;17.80;99.90;;;;;;5075734;28;20384;-73
2023/10/09 12:57:36;;;;;;;;;;;17.70;99.90;;;;;;5047131;28;19977;-72
2023/10/09 13:00:10;;;;;;;;;;;17.70;99.90;;;;;;5068641;28;19925;-73
2023/10/09 13:02:36;;;;;;;;;;;18.00;99.90;;;;;;5055357;28;19979;-73
2023/10/09 13:05:04;;;;;;;;;;;17.90;99.90;;;;;;5073465;28;20382;-72
2023/10/09 13:07:30;;;;;;;;;;;17.60;99.90;;;;;;5067355;28;19917;-73
2023/10/09 13:10:08;;;;;;;;;;;17.20;99.90;;;;;;5067249;28;20424;-74
2023/10/09 13:12:34;;;;;;;;;;;17.40;99.90;;;;;;5073800;28;20000;-74
2023/10/09 13:14:59;;;;;;;;;;;17.30;99.90;;;;;;5068111;28;19999;-73
2023/10/09 13:17:28;;;;;;;;;;;17.10;99.90;;;;;;5069833;28;20011;-72
2023/10/09 13:19:54;;;;;;;;;;;17.40;99.90;;;;;;5082733;28;20406;-72
2023/10/09 13:22:20;;;;;;;;;;;17.70;99.90;;;;;;5076695;28;20515;-71
2023/10/09 13:24:48;;;;;;;;;;;17.50;99.90;;;;;;5055396;28;19925;-70
2023/10/09 13:27:21;;;;;;;;;;;17.80;99.90;;;;;;5066088;28;19927;-72
2023/10/09 13:29:47;;;;;;;;;;;17.40;99.90;;;;;;5084374;28;20326;-70
2023/10/09 13:32:14;;;;;;;;;;;17.40;99.90;;;;;;5085116;28;19924;-71
2023/10/09 13:34:44;;;;;;;;;;;17.90;99.90;;;;;;5046653;28;19917;-71
2023/10/09 13:37:13;;;;;;;;;;;17.90;99.90;;;;;;5082469;28;19920;-69
2023/10/09 13:39:46;;;;;;;;;;;17.40;99.90;;;;;;5063498;28;19920;-70
2023/10/09 13:42:11;;;;;;;;;;;17.60;99.90;;;;;;5068770;28;20059;-70
2023/10/09 13:44:41;;;;;;;;;;;17.40;99.90;;;;;;5082422;28;20027;-70
2023/10/09 13:47:09;;;;;;;;;;;17.00;99.90;;;;;;5067189;28;19923;-69
2023/10/09 13:49:37;;;;;;;;;;;17.20;99.90;;;;;;5068962;28;19986;-69
2023/10/09 13:52:03;;;;;;;;;;;17.10;99.90;;;;;;5066110;28;19928;-69
2023/10/09 13:54:50;;;;;;;;;;;17.30;99.90;;;;;;5079332;28;19923;-68
2023/10/09 13:57:15;;;;;;;;;;;17.10;99.90;;;;;;5065314;28;19955;-69
2023/10/09 13:59:48;;;;;;;;;;;17.10;99.90;;;;;;5068149;28;20444;-70
2023/10/09 14:02:17;;;;;;;;;;;16.70;99.90;;;;;;5068393;28;19923;-69
2023/10/09 14:04:43;;;;;;;;;;;17.00;99.90;;;;;;5085444;28;19921;-67
2023/10/09 14:07:09;;;;;;;;;;;16.70;99.90;;;;;;5060095;28;19920;-70
2023/10/09 14:12:10;;;;;;;;;;;16.80;99.90;;;;;;5054865;28;20058;-68
2023/10/09 14:14:38;;;;;;;;;;;16.50;99.90;;;;;;5065032;28;19991;-69
2023/10/09 14:17:13;;;;;;;;;;;16.70;99.90;;;;;;5081197;28;19947;-69
2023/10/09 14:19:47;;;;;;;;;;;16.30;99.90;;;;;;5067765;28;19920;-68
2023/10/09 14:22:29;;;;;;;;;;;16.20;99.90;;;;;;5081718;28;19931;-69
2023/10/09 14:24:55;;;;;;;;;;;16.50;99.90;;;;;;5075299;28;19916;-69
2023/10/09 14:27:23;;;;;;;;;;;16.50;99.90;;;;;;5061280;28;19921;-68
2023/10/09 14:29:49;;;;;;;;;;;16.30;99.90;;;;;;5066893;28;19920;-69
2023/10/09 14:32:15;;;;;;;;;;;16.30;99.90;;;;;;5062877;28;19920;-71
2023/10/09 14:34:51;;;;;;;;;;;16.30;99.90;;;;;;5060194;28;19970;-69
2023/10/09 14:37:18;;;;;;;;;;;16.10;99.90;;;;;;5079550;28;20272;-69
2023/10/09 14:39:55;;;;;;;;;;;16.30;99.90;;;;;;5063603;28;19928;-70
2023/10/09 14:42:22;;;;;;;;;;;16.10;99.90;;;;;;5065038;28;19916;-69
2023/10/09 14:44:49;;;;;;;;;;;16.10;99.90;;;;;;5060878;28;19917;-69
2023/10/09 14:47:15;;;;;;;;;;;16.30;99.90;;;;;;5062786;28;19924;-68
2023/10/09 14:49:44;;;;;;;;;;;16.20;99.90;;;;;;5053184;28;20287;-69
2023/10/09 14:52:10;;;;;;;;;;;16.30;99.90;;;;;;5065457;28;19924;-70
2023/10/09 14:54:36;;;;;;;;;;;16.20;99.90;;;;;;5074540;28;19989;-70
2023/10/09 14:57:05;;;;;;;;;;;16.30;99.90;;;;;;5060905;28;19924;-70
2023/10/09 14:59:34;;;;;;;;;;;16.20;99.90;;;;;;5061144;28;20007;-70
2023/10/09 15:02:00;;;;;;;;;;;16.10;99.90;;;;;;5082525;28;19962;-70
2023/10/09 15:04:26;;;;;;;;;;;16.20;99.90;;;;;;5066848;28;20033;-70
2023/10/09 15:06:54;;;;;;;;;;;16.20;99.90;;;;;;5078458;28;20058;-70
2023/10/09 15:09:23;;;;;;;;;;;16.20;99.90;;;;;;5064355;28;20367;-69
2023/10/09 15:11:49;;;;;;;;;;;16.30;99.90;;;;;;5081554;28;20035;-69
2023/10/09 15:14:15;;;;;;;;;;;16.30;99.90;;;;;;5050259;28;19947;-70
2023/10/09 15:16:42;;;;;;;;;;;16.20;99.90;;;;;;5065109;28;19999;-70
2023/10/09 15:19:09;;;;;;;;;;;16.10;99.90;;;;;;5055523;28;19926;-70
2023/10/09 15:23:59;;;;;;;6.97;3.13;;;16.20;99.90;;;;;;5077616;27;20994;-69
2023/10/09 15:26:32;;;;;;;6.32;2.50;;;15.90;99.90;;;;;;5063504;28;20044;-69
2023/10/09 15:29:00;;;;;;;9.77;3.05;;;16.00;99.90;;;;;;5042003;28;20481;-70
2023/10/09 15:31:25;;;;;;;4.78;2.55;;;16.10;99.90;;;;;;5055185;28;20604;-69
2023/10/09 15:33:51;;;;;;;3.50;2.58;;;16.10;99.90;;;;;;5062269;28;20068;-69
2023/10/09 15:36:20;;;;;;;7.03;3.30;;;16.10;99.90;;;;;;5038052;28;20072;-70
2023/10/09 15:38:46;;;;;;;7.40;3.20;;;16.00;99.90;;;;;;5047116;28;20120;-69
2023/10/09 15:41:13;;;;;;;10.95;3.50;;;16.10;99.90;;;;;;5057848;28;20392;-69
2023/10/09 15:43:39;;;;;;;8.25;3.45;;;15.90;99.90;;;;;;5055145;28;20045;-70
2023/10/09 15:46:14;;;;;;;7.68;2.85;;;16.10;99.90;;;;;;5061775;28;20468;-68
2023/10/09 15:48:41;;;;;;;5.40;2.65;;;15.90;99.90;;;;;;5044420;28;20076;-71
2023/10/09 15:51:14;;;;;;;7.20;2.85;;;15.70;99.90;;;;;;5061387;28;20083;-70
2023/10/09 15:53:41;;;;;;;7.95;3.03;;;15.70;99.90;;;;;;5043818;28;20170;-69
2023/10/09 15:56:07;;;;;;;7.15;2.72;;;15.70;99.90;;;;;;5063840;28;20122;-69
2023/10/09 15:58:33;;;;;;;6.95;2.90;;;15.70;99.90;;;;;;5059575;28;20104;-70
2023/10/09 16:00:59;;;;;;;8.82;3.15;;;15.80;99.90;;;;;;5042953;28;20040;-69
2023/10/09 16:03:27;;;;;;;7.00;2.92;;;15.80;99.90;;;;;;5044814;28;20124;-69
2023/10/09 16:05:53;;;;;;;8.70;2.88;;;15.60;99.90;;;;;;5059732;28;20433;-73
2023/10/09 16:08:22;;;;;;;11.10;2.58;;;15.70;99.90;;;;;;5061894;28;20107;-71
2023/10/09 16:10:48;;;;;;;6.90;3.07;;;15.60;99.90;;;;;;5060151;28;20500;-70
2023/10/09 16:13:14;;;;;;;6.45;2.95;;;15.80;99.90;;;;;;5061044;28;20040;-69
2023/10/09 16:15:43;;;;;;;7.25;2.75;;;15.50;99.90;;;;;;5060372;28;20071;-69
2023/10/09 16:18:09;;;;;;;7.55;3.13;;;15.70;99.90;;;;;;5062936;28;20040;-69
2023/10/09 16:20:37;;;;;;;6.90;2.67;;;15.60;99.90;;;;;;5054740;28;20124;-69